Flight Track Log - Related Links

Times and Time Zones

All times are in EST time to prevent confusion due to time zone crossing. See the EJA922 flight status page for this flight to view local times or setup timezone preferences in your user account.

Time Position Orientation Groundspeed Altitude Reporting Facility
EST Latitude Longitude Course Direction KTS MPH feet Rate Location/Type
Sun 07:12:04 AM 41.6236 -83.8583 11° North 257 296 4,000  Level Cleveland Center
Sun 07:13:04 AM 41.6831 -83.7972 38° Northeast 281 323 4,000  Level Cleveland Center
Sun 07:13:19 AM 41.6897 -83.7919 31° Northeast 273 314 4,000  Level Cleveland Center
Sun 07:14:05 AM 41.7586 -83.7972 357° North 248 285 4,000  Level Cleveland Center
Sun 07:14:20 AM 41.7608 -83.7950 37° Northeast 254 292 4,000  Level Cleveland Center
Sun 07:15:06 AM 41.8319 -83.7967 359° North 265 305 4,000  Level Cleveland Center
Sun 07:15:21 AM 41.8497 -83.7964 North 264 304 4,000  Level Cleveland Center
Sun 07:16:07 AM 41.9014 -83.7956 North 243 280 4,000  Level Cleveland Center
Sun 07:16:22 AM 41.9178 -83.7914 11° North 251 289 4,000 98 Level Cleveland Center
Sun 07:17:00 AM 41.9866 -83.6999 11° North  Level FlightAware Approximate
Sun 07:17:08 AM 41.9686 -83.7664 20° North 259 298 4,100  Level Cleveland Center
Sun 07:17:23 AM 41.9836 -83.7569 25° Northeast 254 292 4,100  Level Cleveland Center
Sun 07:18:09 AM 42.0342 -83.7336 19° North 249 287 4,100  Level Cleveland Center
Sun 07:18:24 AM 42.0497 -83.7242 24° Northeast 252 290 4,100  Level Cleveland Center
Sun 07:19:09 AM 42.1042 -83.6989 19° North 267 307 4,100 -98 Level Cleveland Center
Sun 07:19:25 AM 42.1200 -83.6903 22° Northeast 264 304 4,000  Descending Cleveland Center
Sun 07:20:10 AM 42.1697 -83.6664 20° North 250 288 4,100 100 Climbing Cleveland Center
Sun 07:20:25 AM 42.1861 -83.6583 20° North 258 297 4,100  Level Cleveland Center
Sun 07:21:11 AM 42.2372 -83.6339 19° North 246 283 4,100 -98 Level Cleveland Center
Sun 07:21:26 AM 42.2506 -83.6267 22° Northeast 250 288 4,000  Descending Cleveland Center
Sun 07:22:12 AM 42.3028 -83.6011 20° North 244 281 4,100  Climbing Cleveland Center
Sun 07:22:27 AM 42.3156 -83.5944 21° North 247 284 4,000 -197 Descending Cleveland Center
Sun 07:23:13 AM 42.3661 -83.5706 19° North 244 281 3,900 -295 Descending Cleveland Center
Sun 07:23:28 AM 42.3797 -83.5622 24° Northeast 243 280 3,700 -787 Descending Cleveland Center
Sun 07:24:14 AM 42.4294 -83.5375 20° North 239 275 3,100 -590 Descending Cleveland Center
Sun 07:24:29 AM 42.4425 -83.5311 20° North 239 275 3,100  Level Cleveland Center
Sun 07:25:14 AM 42.4928 -83.5069 20° North 232 267 3,100  Level Cleveland Center
Sun 07:25:30 AM 42.5042 -83.5006 22° Northeast 236 272 3,100 -197 Level Cleveland Center
Sun 07:26:15 AM 42.5514 -83.4786 19° North 216 249 2,900 -393 Descending Cleveland Center
Sun 07:26:31 AM 42.5614 -83.4719 26° Northeast 226 260 2,700 -234 Descending Cleveland Center
Sun 07:27:32 AM 42.6100 -83.4475 20° North 198 228 2,600 -60 Descending Cleveland Center
Sun 07:28:11 AM 42.6264 -83.4069 61° Northeast 204 235 2,600 -98 Level Cleveland Center
Sun 07:28:33 AM 42.6289 -83.3850 81° East 205 236 2,500 -400 Descending Cleveland Center
Sun 07:29:11 AM 42.6456 -83.3472 59° Northeast 157 181 2,200 -590 Descending Cleveland Center
Sun 07:29:34 AM 42.6547 -83.3456 North 176 203 1,900 -590 Descending Cleveland Center
Sun 07:30:12 AM 42.6664 -83.3758 298° West 114 131 1,600 -400 Descending Cleveland Center
Sun 07:30:34 AM 42.6653 -83.3850 261° West 138 159 1,500 -145 Descending Cleveland Center
Sun 07:31:35 AM 42.6653 -83.4289 270° West 134 154 1,400 -98 Descending Cleveland Center

Login

Don't have an account? Register now (free) for customized features, flight alerts, and more!